Time;durP1;ratioP1;P1;durP2;ratioP2;P2;SDS_P1;SDS_P2;PMS_P1;PMS_P2;Temp;Humidity;BMP_temperature;BMP_pressure;BME280_temperature;BME280_humidity;BME280_pressure;Samples;Min_cycle;Max_cycle;Signal;HPM_P1;HPM_P2
2023/03/20 00:01:57;;;;;;;13.73;11.10;;;8.50;94.80;;;;;;6180051;23;20703;-76
2023/03/20 00:04:25;;;;;;;14.85;12.20;;;8.50;95.10;;;;;;6179960;23;20423;-77
2023/03/20 00:06:51;;;;;;;13.77;11.10;;;8.60;94.90;;;;;;6178368;23;20373;-78
2023/03/20 00:09:18;;;;;;;14.70;11.65;;;8.70;94.80;;;;;;6179783;23;20845;-77
2023/03/20 00:11:50;;;;;;;16.33;12.30;;;8.70;94.50;;;;;;6178585;23;20480;-78
2023/03/20 00:14:21;;;;;;;13.53;12.10;;;8.80;94.20;;;;;;6179706;23;20380;-77
2023/03/20 00:16:49;;;;;;;15.40;12.07;;;8.90;93.80;;;;;;6179146;23;20423;-76
2023/03/20 00:19:24;;;;;;;15.52;11.82;;;9.00;93.60;;;;;;6181107;23;20369;-77
2023/03/20 00:21:53;;;;;;;14.13;11.43;;;9.10;93.20;;;;;;6180773;23;20714;-78
2023/03/20 00:24:21;;;;;;;12.63;11.23;;;9.10;92.70;;;;;;6180213;23;20396;-77
2023/03/20 00:26:50;;;;;;;13.40;10.70;;;9.10;92.40;;;;;;6180312;23;20373;-77
2023/03/20 00:29:29;;;;;;;13.75;11.15;;;9.00;92.50;;;;;;6179905;23;20372;-77
2023/03/20 00:31:57;;;;;;;14.77;10.93;;;9.10;92.30;;;;;;6178667;23;20376;-77
2023/03/20 00:34:28;;;;;;;14.32;11.07;;;9.00;92.40;;;;;;6179825;23;20372;-77
2023/03/20 00:36:55;;;;;;;12.88;10.95;;;9.00;92.80;;;;;;6180041;23;20709;-77
2023/03/20 00:39:23;;;;;;;13.05;10.95;;;9.00;92.60;;;;;;6179866;23;20830;-77
2023/03/20 00:41:51;;;;;;;11.27;9.65;;;9.00;92.60;;;;;;6178482;23;20415;-78
2023/03/20 00:44:31;;;;;;;12.65;9.68;;;8.90;92.70;;;;;;6179904;23;20368;-76
2023/03/20 00:47:02;;;;;;;13.30;9.90;;;8.80;93.20;;;;;;6177997;23;20418;-77
2023/03/20 00:49:32;;;;;;;13.43;11.25;;;8.70;93.50;;;;;;6181638;23;20710;-77
2023/03/20 00:52:00;;;;;;;11.25;9.60;;;8.70;93.40;;;;;;6179107;23;20746;-77
2023/03/20 00:54:27;;;;;;;13.18;11.30;;;8.50;93.70;;;;;;6179635;23;20373;-77
2023/03/20 00:57:22;;;;;;;15.05;11.73;;;8.40;93.80;;;;;;6179317;22;20440;-77
2023/03/20 01:00:01;;;;;;;12.57;10.88;;;8.20;96.00;;;;;;6180424;23;20399;-77
2023/03/20 01:02:29;;;;;;;13.93;10.88;;;8.10;95.80;;;;;;6181366;23;20698;-77
2023/03/20 01:04:57;;;;;;;14.60;11.52;;;8.00;96.40;;;;;;6180381;23;20399;-77
2023/03/20 01:07:24;;;;;;;15.50;11.27;;;7.90;96.90;;;;;;6181545;23;20455;-77
2023/03/20 01:09:51;;;;;;;16.08;13.15;;;7.70;97.60;;;;;;6182178;23;20391;-77
2023/03/20 01:12:18;;;;;;;13.93;11.63;;;7.60;99.30;;;;;;6183446;23;20369;-77
2023/03/20 01:14:53;;;;;;;14.00;11.80;;;7.50;99.50;;;;;;6181797;23;20380;-77
2023/03/20 01:17:22;;;;;;;13.40;11.73;;;7.40;99.60;;;;;;6181433;23;20365;-77
2023/03/20 01:19:49;;;;;;;16.15;13.18;;;7.20;99.90;;;;;;6179713;23;20379;-77
2023/03/20 01:22:19;;;;;;;13.73;11.73;;;7.10;99.90;;;;;;6180670;23;20436;-77
2023/03/20 01:24:46;;;;;;;13.93;11.88;;;7.00;99.90;;;;;;6180299;23;20377;-78
2023/03/20 01:27:18;;;;;;;13.68;11.95;;;6.90;99.90;;;;;;6180992;23;20439;-76
2023/03/20 01:29:45;;;;;;;13.23;11.73;;;6.90;99.90;;;;;;6181225;23;20376;-77
2023/03/20 01:32:17;;;;;;;12.57;11.20;;;6.80;99.90;;;;;;6180200;23;20388;-77
2023/03/20 01:34:44;;;;;;;13.70;11.77;;;6.80;99.90;;;;;;6181280;23;20427;-77
2023/03/20 01:37:16;;;;;;;14.95;12.18;;;6.70;99.90;;;;;;6180453;23;20368;-77
2023/03/20 01:39:44;;;;;;;15.00;12.23;;;6.60;99.90;;;;;;6180687;23;20483;-77
2023/03/20 01:42:14;;;;;;;13.18;11.00;;;6.40;99.90;;;;;;6180320;22;20372;-77
2023/03/20 01:44:41;;;;;;;15.07;11.50;;;6.30;99.90;;;;;;6182544;23;20369;-78
2023/03/20 01:47:20;;;;;;;13.30;11.35;;;6.30;99.90;;;;;;6180425;23;20747;-77
2023/03/20 01:50:17;;;;;;;15.68;12.75;;;6.30;99.90;;;;;;6182807;23;20699;-77
2023/03/20 01:52:46;;;;;;;14.63;11.93;;;6.30;99.90;;;;;;6181623;23;20372;-77
2023/03/20 01:55:13;;;;;;;16.55;13.27;;;6.30;99.90;;;;;;6156470;23;20390;-77
2023/03/20 01:57:40;;;;;;;16.70;13.80;;;6.20;99.90;;;;;;6181895;23;20471;-77
2023/03/20 02:00:13;;;;;;;14.40;12.90;;;6.30;99.90;;;;;;6181355;23;20388;-79
2023/03/20 02:02:41;;;;;;;15.57;12.25;;;6.30;99.90;;;;;;6201214;23;20385;-79
